createdAt,value
2022-11-18T00:04:39.214Z,11.68
2022-11-18T00:09:41.080Z,12.52
2022-11-18T00:14:42.938Z,16.30
2022-11-18T00:19:44.832Z,15.55
2022-11-18T00:24:46.723Z,15.07
2022-11-18T00:29:48.544Z,19.50
2022-11-18T00:34:50.377Z,18.73
2022-11-18T00:39:52.249Z,14.95
2022-11-18T00:44:54.238Z,16.55
2022-11-18T00:49:56.124Z,17.88
2022-11-18T00:54:58.075Z,14.73
2022-11-18T01:00:00.147Z,14.02
2022-11-18T01:05:02.044Z,16.75
2022-11-18T01:10:04.315Z,21.08
2022-11-18T01:15:06.605Z,20.25
2022-11-18T01:20:08.999Z,18.58
2022-11-18T01:25:11.045Z,13.32
2022-11-18T01:30:13.510Z,18.23
2022-11-18T01:35:15.686Z,18.63
2022-11-18T01:40:17.655Z,22.23
2022-11-18T01:45:29.030Z,17.60
2022-11-18T01:50:32.981Z,22.00
2022-11-18T01:55:41.838Z,19.65
2022-11-18T02:00:43.716Z,19.35
2022-11-18T02:05:48.283Z,20.48
2022-11-18T02:10:50.129Z,13.73
2022-11-18T02:16:13.995Z,19.67
2022-11-18T02:21:39.880Z,14.77
2022-11-18T02:27:21.997Z,15.20
2022-11-18T02:32:32.134Z,14.07
2022-11-18T02:37:46.894Z,12.57
2022-11-18T02:42:55.513Z,15.75
2022-11-18T02:48:05.692Z,14.75
2022-11-18T02:53:11.071Z,13.00
2022-11-18T02:58:16.622Z,14.73
2022-11-18T03:03:33.726Z,18.83
2022-11-18T03:08:43.232Z,18.83
2022-11-18T03:14:37.879Z,16.55
2022-11-18T03:19:51.507Z,15.25
2022-11-18T03:25:30.034Z,13.43
2022-11-18T03:30:34.536Z,12.80
2022-11-18T03:35:41.860Z,20.83
2022-11-18T03:40:53.129Z,19.15
2022-11-18T03:46:08.663Z,21.83
2022-11-18T03:51:15.304Z,22.02
2022-11-18T03:56:22.746Z,15.25
2022-11-18T04:01:31.780Z,17.90
2022-11-18T04:06:48.352Z,19.98
2022-11-18T04:12:03.072Z,31.17
2022-11-18T04:17:17.055Z,34.92
2022-11-18T04:22:19.422Z,29.42
2022-11-18T04:27:21.292Z,31.02
2022-11-18T04:32:23.271Z,41.15
2022-11-18T04:37:25.669Z,17.33
2022-11-18T04:42:28.274Z,19.95
2022-11-18T04:47:30.354Z,16.75
2022-11-18T04:52:32.163Z,16.50
2022-11-18T04:57:33.937Z,18.85
2022-11-18T05:02:35.973Z,17.88
2022-11-18T05:07:37.807Z,16.40
2022-11-18T05:12:49.011Z,17.88
2022-11-18T05:17:52.132Z,16.90
2022-11-18T05:22:54.066Z,16.30
2022-11-18T05:27:56.177Z,18.85
2022-11-18T05:32:58.076Z,25.17
2022-11-18T05:38:01.755Z,19.38
2022-11-18T05:43:12.743Z,18.67
2022-11-18T05:48:14.754Z,21.30
2022-11-18T05:53:19.075Z,21.88
2022-11-18T05:58:21.353Z,20.30
2022-11-18T06:03:30.917Z,20.38
2022-11-18T06:08:42.272Z,23.65
2022-11-18T06:14:03.771Z,21.25
2022-11-18T06:19:07.394Z,17.85
2022-11-18T06:24:10.152Z,18.73
2022-11-18T06:29:15.151Z,17.38
2022-11-18T06:34:17.686Z,20.30
2022-11-18T06:39:20.027Z,20.83
2022-11-18T06:44:22.537Z,20.00
2022-11-18T06:49:26.008Z,23.38
2022-11-18T06:54:27.864Z,22.48
2022-11-18T06:59:29.728Z,21.17
2022-11-18T07:04:33.695Z,20.60
2022-11-18T07:09:36.864Z,23.15
2022-11-18T07:14:38.753Z,17.77
2022-11-18T07:19:40.690Z,17.08
2022-11-18T07:24:43.426Z,17.67
2022-11-18T07:29:45.148Z,19.15
2022-11-18T07:34:46.983Z,17.52
2022-11-18T07:39:48.730Z,16.33
2022-11-18T07:44:50.527Z,13.18
2022-11-18T07:49:52.336Z,14.80
2022-11-18T07:54:54.372Z,14.02
2022-11-18T07:59:56.261Z,11.95
2022-11-18T08:04:58.084Z,16.67
2022-11-18T08:09:59.864Z,13.60
2022-11-18T08:15:01.684Z,10.10
2022-11-18T08:20:03.814Z,15.13
2022-11-18T08:25:05.972Z,12.10
2022-11-18T08:30:08.660Z,11.25
2022-11-18T08:35:11.558Z,11.93
2022-11-18T08:40:13.952Z,13.95
2022-11-18T08:45:15.908Z,11.90
2022-11-18T08:50:17.914Z,13.02
2022-11-18T08:55:19.748Z,24.98
2022-11-18T09:00:21.614Z,12.60
2022-11-18T09:05:23.473Z,10.20
2022-11-18T09:10:25.317Z,9.73
2022-11-18T09:15:29.698Z,13.75
2022-11-18T09:20:31.541Z,16.52
2022-11-18T09:25:33.409Z,15.93
2022-11-18T09:30:35.238Z,18.00
2022-11-18T09:35:42.415Z,17.95
2022-11-18T09:41:12.784Z,21.17
2022-11-18T09:46:33.964Z,23.38
2022-11-18T09:51:49.774Z,22.70
2022-11-18T09:56:54.194Z,23.27
2022-11-18T10:02:03.311Z,23.65
2022-11-18T10:07:19.279Z,26.55
2022-11-18T10:12:37.311Z,25.50
2022-11-18T10:17:57.347Z,21.50
2022-11-18T10:23:15.879Z,23.83
2022-11-18T10:28:30.911Z,21.38
2022-11-18T10:33:33.420Z,25.50
2022-11-18T10:38:35.317Z,27.33
2022-11-18T10:43:52.184Z,34.72
2022-11-18T10:49:09.150Z,24.25
2022-11-18T10:54:19.365Z,22.73
2022-11-18T10:59:35.089Z,20.98
2022-11-18T11:04:38.567Z,18.20
2022-11-18T11:09:40.556Z,17.60
2022-11-18T11:14:57.644Z,13.95
2022-11-18T11:20:20.893Z,12.30
2022-11-18T11:31:20.369Z,13.90
2022-11-18T11:36:22.256Z,16.63
2022-11-18T11:41:24.817Z,19.85
2022-11-18T11:47:14.516Z,15.77
2022-11-18T11:52:28.204Z,16.65
2022-11-18T11:58:01.382Z,18.77
2022-11-18T12:03:14.428Z,19.45
2022-11-18T12:08:31.127Z,17.85
2022-11-18T12:13:53.060Z,18.30
2022-11-18T12:19:18.157Z,20.15
2022-11-18T12:24:23.138Z,23.40
2022-11-18T12:29:27.935Z,22.38
2022-11-18T12:34:37.444Z,24.73
2022-11-18T12:39:41.947Z,21.30
2022-11-18T12:44:46.386Z,23.85
2022-11-18T12:49:48.197Z,25.73
2022-11-18T12:54:50.907Z,21.65
2022-11-18T12:59:52.775Z,28.38
2022-11-18T13:05:11.095Z,32.50
2022-11-18T13:10:23.737Z,28.60
2022-11-18T13:15:44.613Z,33.50
2022-11-18T13:21:30.887Z,32.90
2022-11-18T13:26:34.675Z,29.80
2022-11-18T13:31:48.739Z,34.97
2022-11-18T13:36:52.939Z,35.08
2022-11-18T13:42:04.308Z,34.42
2022-11-18T13:47:06.296Z,30.25
2022-11-18T13:52:18.989Z,30.30
2022-11-18T13:57:23.559Z,25.05
2022-11-18T14:02:25.449Z,27.30
2022-11-18T14:07:35.545Z,25.88
2022-11-18T14:12:40.788Z,27.95
2022-11-18T14:18:02.022Z,25.60
2022-11-18T14:23:05.676Z,27.17
2022-11-18T14:28:27.031Z,24.80
2022-11-18T14:33:30.116Z,25.33
2022-11-18T14:44:01.628Z,29.23
2022-11-18T14:49:06.554Z,32.92
2022-11-18T14:54:14.051Z,33.05
2022-11-18T14:59:19.092Z,28.75
2022-11-18T15:04:22.161Z,29.70
2022-11-18T15:09:24.865Z,31.10
2022-11-18T15:14:26.614Z,34.75
2022-11-18T15:19:31.988Z,35.45
2022-11-18T15:24:34.026Z,33.47
2022-11-18T15:29:35.905Z,35.88
2022-11-18T15:34:37.773Z,31.85
2022-11-18T15:39:39.894Z,34.53
2022-11-18T15:44:41.915Z,34.88
2022-11-18T15:49:45.433Z,35.97
2022-11-18T15:54:48.518Z,27.95
2022-11-18T15:59:50.333Z,32.70
2022-11-18T16:04:54.769Z,34.03
2022-11-18T16:10:15.074Z,34.25
2022-11-18T16:15:36.386Z,31.60
2022-11-18T16:20:38.209Z,41.85
2022-11-18T16:25:44.649Z,34.58
2022-11-18T16:31:09.115Z,36.38
2022-11-18T16:36:10.912Z,34.05
2022-11-18T16:41:31.285Z,39.70
2022-11-18T16:46:35.095Z,36.58
2022-11-18T16:51:37.008Z,35.60
2022-11-18T16:56:40.594Z,37.40
2022-11-18T17:01:42.917Z,36.42
2022-11-18T17:06:48.564Z,32.92
2022-11-18T17:11:52.347Z,31.13
2022-11-18T17:16:54.282Z,26.30
2022-11-18T17:21:56.656Z,32.72
2022-11-18T17:26:58.546Z,30.95
2022-11-18T17:32:01.527Z,28.58
2022-11-18T17:37:06.983Z,34.05
2022-11-18T17:42:15.106Z,31.85
2022-11-18T17:47:18.176Z,26.73
2022-11-18T17:52:20.074Z,21.80
2022-11-18T17:57:21.999Z,23.45
2022-11-18T18:02:24.026Z,21.63
2022-11-18T18:07:25.944Z,20.95
2022-11-18T18:12:46.202Z,25.40
2022-11-18T18:17:48.620Z,24.58
2022-11-18T18:22:50.449Z,21.38
2022-11-18T18:27:52.977Z,23.55
2022-11-18T18:32:54.807Z,20.85
2022-11-18T18:37:56.719Z,20.52
2022-11-18T18:42:58.578Z,21.70
2022-11-18T18:48:03.993Z,19.60
2022-11-18T18:53:05.908Z,17.35
2022-11-18T18:58:08.717Z,14.38
2022-11-18T19:03:10.795Z,16.10
2022-11-18T19:08:12.842Z,15.68
2022-11-18T19:13:14.742Z,14.25
2022-11-18T19:18:16.706Z,14.43
2022-11-18T19:23:19.626Z,10.48
2022-11-18T19:28:21.563Z,14.25
2022-11-18T19:33:23.557Z,12.93
2022-11-18T19:38:25.333Z,9.70
2022-11-18T19:43:27.442Z,9.68
2022-11-18T19:48:29.832Z,9.57
2022-11-18T19:53:32.091Z,7.82
2022-11-18T19:58:36.458Z,13.13
2022-11-18T20:03:38.558Z,10.43
2022-11-18T20:08:41.184Z,13.93
2022-11-18T20:13:44.499Z,10.00
2022-11-18T20:18:48.842Z,12.63
2022-11-18T20:23:58.698Z,7.80
2022-11-18T20:29:00.714Z,9.98
2022-11-18T20:34:03.046Z,8.85
2022-11-18T20:39:07.685Z,6.03
2022-11-18T20:44:09.575Z,10.45
2022-11-18T20:49:11.612Z,10.23
2022-11-18T20:54:13.718Z,10.32
2022-11-18T20:59:15.718Z,13.68
2022-11-18T21:04:17.821Z,9.40
2022-11-18T21:09:19.932Z,9.02
2022-11-18T21:14:25.536Z,9.73
2022-11-18T21:19:28.869Z,11.57
2022-11-18T21:24:33.058Z,8.38
2022-11-18T21:29:34.981Z,10.65
2022-11-18T21:34:36.873Z,9.32
2022-11-18T21:39:41.428Z,11.13
2022-11-18T21:44:43.248Z,12.60
2022-11-18T21:49:45.281Z,12.98
2022-11-18T21:54:47.124Z,8.60
2022-11-18T21:59:49.126Z,11.13
2022-11-18T22:04:53.831Z,13.00
2022-11-18T22:09:55.677Z,10.15
2022-11-18T22:14:57.466Z,9.43
2022-11-18T22:19:59.203Z,9.90
2022-11-18T22:25:01.012Z,11.52
2022-11-18T22:30:02.793Z,10.70
2022-11-18T22:35:04.895Z,9.10
2022-11-18T22:40:07.657Z,16.95
2022-11-18T22:45:09.667Z,12.00
2022-11-18T22:50:11.484Z,10.85
2022-11-18T22:55:13.262Z,8.82
2022-11-18T23:00:16.400Z,10.02
2022-11-18T23:05:18.400Z,10.38
2022-11-18T23:10:20.249Z,12.45
2022-11-18T23:15:22.149Z,9.77
2022-11-18T23:20:23.975Z,11.02
2022-11-18T23:25:25.795Z,10.90
2022-11-18T23:30:27.807Z,8.40
2022-11-18T23:35:29.709Z,14.38
2022-11-18T23:40:31.797Z,12.10
2022-11-18T23:45:33.644Z,10.75
2022-11-18T23:50:39.315Z,13.60
2022-11-18T23:55:41.393Z,10.70
